F/V Oceanis — FHLH — position and weather

sailwx.info

Track history (hours):
 
Tides and Currents Weather Stations Pressure Air Temp Water Temp Dewpoint Dewpoint Depression Visibility Wind Speed Wind Dir Waves Ship Positions

F/V Oceanis

Last reported at 2017-Nov-18 13:08 UTC. Time now 2017-Nov-19 01:20 UTC.
Position N 44°35' W 002°03'.

Type: Other ship. MMSI: 228385000.

Date/timePositionNaut miles runAvg speedWind from/ knotsBaromVisibWave heightAir tempDewpointWater temp
2017-Nov-18 13:08N 44°35' W 002°03'1 7.3
2017-Nov-18 13:00N 44°35' W 002°02'14 1.9
2017-Nov-18 05:43N 44°21' W 001°59'1 3.1
2017-Nov-18 05:29N 44°21' W 001°60'1 0.5
2017-Nov-18 03:54N 44°21' W 001°59'0 0.3
2017-Nov-18 03:07N 44°21' W 001°59'6 5.6
2017-Nov-18 02:05N 44°24' W 001°53'1 7.5
2017-Nov-18 02:00N 44°25' W 001°52'4 7.3
2017-Nov-18 01:30N 44°27' W 001°48'4 7.1
2017-Nov-18 01:01N 44°29' W 001°44'19 3.9
2017-Nov-17 20:04N 44°34' W 001°18'1 8.7
2017-Nov-17 20:00N 44°34' W 001°17'5 9.5
2017-Nov-17 19:30N 44°38' W 001°14'2 3.2
2017-Nov-17 19:00N 44°39' W 001°12'0 0.1
2017-Nov-17 18:30N 44°40' W 001°12'1 2.0
2017-Nov-17 18:00N 44°40' W 001°11'2 3.6
2017-Nov-17 17:30N 44°39' W 001°09'0 0.0
2017-Nov-17 17:00N 44°39' W 001°09'0 0.0
2017-Nov-17 16:30N 44°39' W 001°09'0 0.0
2017-Nov-17 16:00N 44°39' W 001°09'0 0.0
2017-Nov-17 15:30N 44°39' W 001°09'0 0.0
2017-Nov-17 15:00N 44°39' W 001°09'0 0.0
2017-Nov-17 14:30N 44°39' W 001°09'0 0.1
2017-Nov-17 14:00N 44°39' W 001°09'0 0.0
2017-Nov-17 13:30N 44°39' W 001°09'0 0.0
2017-Nov-17 13:00N 44°39' W 001°09'0 0.0
2017-Nov-17 12:30N 44°39' W 001°09'0 0.0
2017-Nov-17 12:00N 44°39' W 001°09'0 0.0
2017-Nov-17 11:30N 44°39' W 001°09'0 0.0
2017-Nov-17 11:00N 44°39' W 001°09'0 0.0
2017-Nov-17 10:30N 44°39' W 001°09'0 0.0
2017-Nov-17 10:00N 44°39' W 001°09'0 0.0
2017-Nov-17 09:30N 44°39' W 001°09'0 0.0
2017-Nov-17 09:00N 44°39' W 001°09'0 0.0
2017-Nov-17 08:30N 44°39' W 001°09'0 0.0
2017-Nov-17 08:00N 44°39' W 001°09'0 0.0
2017-Nov-15 21:44N 44°39' W 001°09'0 0.0
2017-Nov-15 21:30N 44°39' W 001°09'0 0.0
2017-Nov-15 21:00N 44°39' W 001°09'0 0.0
2017-Nov-15 20:30N 44°39' W 001°09'0 0.1
2017-Nov-15 20:00N 44°39' W 001°09'3 5.0
2017-Nov-15 19:30N 44°40' W 001°12'3 5.6
2017-Nov-15 19:00N 44°37' W 001°14'2 4.5
2017-Nov-15 18:30N 44°35' W 001°15'2 4.0
2017-Nov-15 18:00N 44°34' W 001°18'3 6.9
2017-Nov-15 17:30N 44°37' W 001°20'4 7.5
2017-Nov-15 17:00N 44°40' W 001°22'4 7.4
2017-Nov-15 16:30N 44°44' W 001°25'4 7.6
2017-Nov-15 16:00N 44°47' W 001°28'4 7.6
2017-Nov-15 15:30N 44°50' W 001°30'4 7.5
2017-Nov-15 15:00N 44°53' W 001°33'10 7.5
2017-Nov-15 13:40N 45°02' W 001°41'24 3.2
2017-Nov-15 06:07N 45°25' W 001°33'  
Track history (hours):
 
Tides and Currents Weather Stations Pressure Air Temp Water Temp Dewpoint Dewpoint Depression Visibility Wind Speed Wind Dir Waves Ship Positions

F/V Oceanis

Last reported at 2017-Nov-18 13:08 UTC. Time now 2017-Nov-19 01:20 UTC.
Position N 44°35' W 002°03'.

Type: Other ship. MMSI: 228385000.

Date/timePositionNaut miles runAvg speedWind from/ knotsBaromVisibWave heightAir tempDewpointWater temp
2017-Nov-18 13:08N 44°35' W 002°03'1 7.3
2017-Nov-18 13:00N 44°35' W 002°02'14 1.9
2017-Nov-18 05:43N 44°21' W 001°59'1 3.1
2017-Nov-18 05:29N 44°21' W 001°60'1 0.5
2017-Nov-18 03:54N 44°21' W 001°59'0 0.3
2017-Nov-18 03:07N 44°21' W 001°59'6 5.6
2017-Nov-18 02:05N 44°24' W 001°53'1 7.5
2017-Nov-18 02:00N 44°25' W 001°52'4 7.3
2017-Nov-18 01:30N 44°27' W 001°48'4 7.1
2017-Nov-18 01:01N 44°29' W 001°44'19 3.9
2017-Nov-17 20:04N 44°34' W 001°18'1 8.7
2017-Nov-17 20:00N 44°34' W 001°17'5 9.5
2017-Nov-17 19:30N 44°38' W 001°14'2 3.2
2017-Nov-17 19:00N 44°39' W 001°12'0 0.1
2017-Nov-17 18:30N 44°40' W 001°12'1 2.0
2017-Nov-17 18:00N 44°40' W 001°11'2 3.6
2017-Nov-17 17:30N 44°39' W 001°09'0 0.0
2017-Nov-17 17:00N 44°39' W 001°09'0 0.0
2017-Nov-17 16:30N 44°39' W 001°09'0 0.0
2017-Nov-17 16:00N 44°39' W 001°09'0 0.0
2017-Nov-17 15:30N 44°39' W 001°09'0 0.0
2017-Nov-17 15:00N 44°39' W 001°09'0 0.0
2017-Nov-17 14:30N 44°39' W 001°09'0 0.1
2017-Nov-17 14:00N 44°39' W 001°09'0 0.0
2017-Nov-17 13:30N 44°39' W 001°09'0 0.0
2017-Nov-17 13:00N 44°39' W 001°09'0 0.0
2017-Nov-17 12:30N 44°39' W 001°09'0 0.0
2017-Nov-17 12:00N 44°39' W 001°09'0 0.0
2017-Nov-17 11:30N 44°39' W 001°09'0 0.0
2017-Nov-17 11:00N 44°39' W 001°09'0 0.0
2017-Nov-17 10:30N 44°39' W 001°09'0 0.0
2017-Nov-17 10:00N 44°39' W 001°09'0 0.0
2017-Nov-17 09:30N 44°39' W 001°09'0 0.0
2017-Nov-17 09:00N 44°39' W 001°09'0 0.0
2017-Nov-17 08:30N 44°39' W 001°09'0 0.0
2017-Nov-17 08:00N 44°39' W 001°09'0 0.0
2017-Nov-15 21:44N 44°39' W 001°09'0 0.0
2017-Nov-15 21:30N 44°39' W 001°09'0 0.0
2017-Nov-15 21:00N 44°39' W 001°09'0 0.0
2017-Nov-15 20:30N 44°39' W 001°09'0 0.1
2017-Nov-15 20:00N 44°39' W 001°09'3 5.0
2017-Nov-15 19:30N 44°40' W 001°12'3 5.6
2017-Nov-15 19:00N 44°37' W 001°14'2 4.5
2017-Nov-15 18:30N 44°35' W 001°15'2 4.0
2017-Nov-15 18:00N 44°34' W 001°18'3 6.9
2017-Nov-15 17:30N 44°37' W 001°20'4 7.5
2017-Nov-15 17:00N 44°40' W 001°22'4 7.4
2017-Nov-15 16:30N 44°44' W 001°25'4 7.6
2017-Nov-15 16:00N 44°47' W 001°28'4 7.6
2017-Nov-15 15:30N 44°50' W 001°30'4 7.5
2017-Nov-15 15:00N 44°53' W 001°33'10 7.5
2017-Nov-15 13:40N 45°02' W 001°41'24 3.2
2017-Nov-15 06:07N 45°25' W 001°33'  

Dump ship's entire track history